createdAt,value
2022-12-08T00:02:14.015Z,5.29
2022-12-08T00:05:20.073Z,5.17
2022-12-08T00:08:27.878Z,5.29
2022-12-08T00:11:16.480Z,5.33
2022-12-08T00:14:04.114Z,5.37
2022-12-08T00:16:52.016Z,5.45
2022-12-08T00:19:40.450Z,5.46
2022-12-08T00:22:29.420Z,5.48
2022-12-08T00:25:19.717Z,5.38
2022-12-08T00:28:07.405Z,5.36
2022-12-08T00:30:54.979Z,5.30
2022-12-08T00:33:42.698Z,5.36
2022-12-08T00:36:30.955Z,5.35
2022-12-08T00:39:18.797Z,5.43
2022-12-08T00:42:12.347Z,5.29
2022-12-08T00:45:00.001Z,5.13
2022-12-08T00:47:47.717Z,5.34
2022-12-08T00:50:35.981Z,5.30
2022-12-08T00:53:23.842Z,5.18
2022-12-08T00:56:11.605Z,5.32
2022-12-08T00:58:59.712Z,5.42
2022-12-08T01:01:48.092Z,5.29
2022-12-08T01:04:35.691Z,5.34
2022-12-08T01:07:23.224Z,5.39
2022-12-08T01:10:10.995Z,5.32
2022-12-08T01:13:17.480Z,5.37
2022-12-08T01:16:05.853Z,5.29
2022-12-08T01:18:54.205Z,5.25
2022-12-08T01:21:43.108Z,5.39
2022-12-08T01:24:30.765Z,5.16
2022-12-08T01:27:18.457Z,5.27
2022-12-08T01:30:07.307Z,5.38
2022-12-08T01:32:55.231Z,5.35
2022-12-08T01:35:42.926Z,5.17
2022-12-08T01:38:30.935Z,5.39
2022-12-08T01:41:22.058Z,5.34
2022-12-08T01:44:11.021Z,5.44
2022-12-08T01:46:58.718Z,5.48
2022-12-08T01:49:47.692Z,5.50
2022-12-08T01:52:46.967Z,5.47
2022-12-08T01:55:44.267Z,5.45
2022-12-08T01:58:49.814Z,5.38
2022-12-08T02:01:37.747Z,5.43
2022-12-08T02:04:25.593Z,5.39
2022-12-08T02:07:16.679Z,5.50
2022-12-08T02:10:06.040Z,5.40
2022-12-08T02:12:56.488Z,5.44
2022-12-08T02:16:48.655Z,5.40
2022-12-08T02:20:04.336Z,5.15
2022-12-08T02:23:18.384Z,5.34
2022-12-08T02:26:34.587Z,5.26
2022-12-08T02:29:59.521Z,5.35
2022-12-08T02:32:49.993Z,5.11
2022-12-08T02:36:03.406Z,5.40
2022-12-08T02:39:11.153Z,5.38
2022-12-08T02:42:17.290Z,5.36
2022-12-08T02:45:09.132Z,5.34
2022-12-08T02:47:59.089Z,5.27
2022-12-08T02:50:46.755Z,5.28
2022-12-08T02:53:37.093Z,5.33
2022-12-08T02:56:36.761Z,5.20
2022-12-08T02:59:41.596Z,5.33
2022-12-08T03:02:38.173Z,5.30
2022-12-08T03:05:47.625Z,5.37
2022-12-08T03:09:06.013Z,5.32
2022-12-08T03:12:01.602Z,5.35
2022-12-08T03:14:53.732Z,5.41
2022-12-08T03:17:46.543Z,5.34
2022-12-08T03:20:35.498Z,5.31
2022-12-08T03:23:25.009Z,5.12
2022-12-08T03:26:19.693Z,5.38
2022-12-08T03:29:07.858Z,5.32
2022-12-08T03:31:59.459Z,5.22
2022-12-08T03:34:50.812Z,5.22
2022-12-08T03:37:40.550Z,5.10
2022-12-08T03:40:28.194Z,5.28
2022-12-08T03:43:15.817Z,5.36
2022-12-08T03:46:03.439Z,5.28
2022-12-08T03:48:51.321Z,5.22
2022-12-08T03:51:39.142Z,5.17
2022-12-08T03:54:29.894Z,5.34
2022-12-08T03:57:17.570Z,5.24
2022-12-08T04:00:08.453Z,5.24
2022-12-08T04:02:59.155Z,5.30
2022-12-08T04:05:47.108Z,5.38
2022-12-08T04:08:35.297Z,5.38
2022-12-08T04:11:23.104Z,5.36
2022-12-08T04:14:10.912Z,5.33
2022-12-08T04:16:58.623Z,5.26
2022-12-08T04:19:46.200Z,5.18
2022-12-08T04:22:33.846Z,5.11
2022-12-08T04:25:21.773Z,5.39
2022-12-08T04:28:09.478Z,5.30
2022-12-08T04:30:57.544Z,5.27
2022-12-08T04:33:45.570Z,5.27
2022-12-08T04:36:33.206Z,5.29
2022-12-08T04:39:20.768Z,5.32
2022-12-08T04:42:08.497Z,5.30
2022-12-08T04:44:56.174Z,5.40
2022-12-08T04:47:46.299Z,5.38
2022-12-08T04:50:34.076Z,5.45
2022-12-08T04:53:21.830Z,5.43
2022-12-08T04:56:16.989Z,5.49
2022-12-08T04:59:07.000Z,5.41
2022-12-08T05:01:54.908Z,5.43
2022-12-08T05:04:45.943Z,5.20
2022-12-08T05:07:33.715Z,5.30
2022-12-08T05:10:21.416Z,5.33
2022-12-08T05:13:09.173Z,5.33
2022-12-08T05:16:10.100Z,5.28
2022-12-08T05:18:57.821Z,5.33
2022-12-08T05:21:46.029Z,5.32
2022-12-08T05:24:33.890Z,5.35
2022-12-08T05:27:21.457Z,5.32
2022-12-08T05:30:09.270Z,5.34
2022-12-08T05:32:56.869Z,5.37
2022-12-08T05:35:44.663Z,5.28
2022-12-08T05:38:32.413Z,5.31
2022-12-08T05:41:21.549Z,5.21
2022-12-08T05:44:09.518Z,5.39
2022-12-08T05:46:57.066Z,5.33
2022-12-08T05:49:45.204Z,5.24
2022-12-08T05:52:32.969Z,5.38
2022-12-08T05:55:20.605Z,5.35
2022-12-08T05:58:16.030Z,5.46
2022-12-08T06:01:03.832Z,5.33
2022-12-08T06:03:52.838Z,5.53
2022-12-08T06:06:40.531Z,5.54
2022-12-08T06:09:28.315Z,5.37
2022-12-08T06:12:16.446Z,5.51
2022-12-08T06:15:04.503Z,5.58
2022-12-08T06:17:52.220Z,5.57
2022-12-08T06:20:39.866Z,5.39
2022-12-08T06:23:27.574Z,5.62
2022-12-08T06:26:16.345Z,5.62
2022-12-08T06:29:05.197Z,5.61
2022-12-08T06:31:53.233Z,5.57
2022-12-08T06:34:41.120Z,5.47
2022-12-08T06:37:29.036Z,5.66
2022-12-08T06:40:16.774Z,5.59
2022-12-08T06:43:04.515Z,5.67
2022-12-08T06:45:52.907Z,5.85
2022-12-08T06:48:40.840Z,5.77
2022-12-08T06:51:28.355Z,5.70
2022-12-08T06:54:16.032Z,5.68
2022-12-08T06:57:04.824Z,5.68
2022-12-08T06:59:52.572Z,5.70
2022-12-08T07:02:42.739Z,5.70
2022-12-08T07:05:30.429Z,5.83
2022-12-08T07:08:18.285Z,5.80
2022-12-08T07:11:12.424Z,5.65
2022-12-08T07:14:03.082Z,5.76
2022-12-08T07:16:51.761Z,5.78
2022-12-08T07:19:41.971Z,5.67
2022-12-08T07:22:29.614Z,5.78
2022-12-08T07:25:18.031Z,5.96
2022-12-08T07:28:12.689Z,5.76
2022-12-08T07:31:00.845Z,5.78
2022-12-08T07:33:49.010Z,5.81
2022-12-08T07:36:36.871Z,5.84
2022-12-08T07:39:24.589Z,5.80
2022-12-08T07:42:12.346Z,5.60
2022-12-08T07:45:01.053Z,5.79
2022-12-08T07:47:48.642Z,5.81
2022-12-08T07:50:36.509Z,5.76
2022-12-08T07:53:24.192Z,5.81
2022-12-08T07:56:13.847Z,5.77
2022-12-08T07:59:01.716Z,5.90
2022-12-08T08:02:11.723Z,5.96
2022-12-08T08:04:58.634Z,5.72
2022-12-08T08:07:48.554Z,5.80
2022-12-08T08:10:36.389Z,5.82
2022-12-08T08:13:24.150Z,5.89
2022-12-08T08:16:13.915Z,6.05
2022-12-08T08:19:01.711Z,6.04
2022-12-08T08:21:50.297Z,5.93
2022-12-08T08:24:43.136Z,5.96
2022-12-08T08:27:33.307Z,5.77
2022-12-08T08:30:21.386Z,6.01
2022-12-08T08:33:09.022Z,6.16
2022-12-08T08:35:57.964Z,6.24
2022-12-08T08:38:45.631Z,6.17
2022-12-08T08:41:33.563Z,6.16
2022-12-08T08:44:21.131Z,6.04
2022-12-08T08:47:09.997Z,5.97
2022-12-08T08:49:57.681Z,6.12
2022-12-08T08:52:45.355Z,6.09
2022-12-08T08:55:33.001Z,5.99
2022-12-08T08:58:20.783Z,6.29
2022-12-08T09:01:08.748Z,6.38
2022-12-08T09:03:57.233Z,6.45
2022-12-08T09:06:45.528Z,6.37
2022-12-08T09:09:33.167Z,6.27
2022-12-08T09:12:22.396Z,6.48
2022-12-08T09:15:10.657Z,6.43
2022-12-08T09:17:58.293Z,6.59
2022-12-08T09:20:47.070Z,6.61
2022-12-08T09:23:35.988Z,6.52
2022-12-08T09:26:25.463Z,6.58
2022-12-08T09:29:14.762Z,6.46
2022-12-08T09:32:03.388Z,6.61
2022-12-08T09:35:01.958Z,6.57
2022-12-08T09:37:58.344Z,6.70
2022-12-08T09:41:26.583Z,6.66
2022-12-08T09:44:35.365Z,6.72
2022-12-08T09:47:36.547Z,6.57
2022-12-08T09:50:31.010Z,6.67
2022-12-08T09:53:27.378Z,6.71
2022-12-08T09:56:22.832Z,6.86
2022-12-08T09:59:34.587Z,6.92
2022-12-08T10:02:28.739Z,6.80
2022-12-08T10:05:16.494Z,6.62
2022-12-08T10:08:12.665Z,6.71
2022-12-08T10:11:11.172Z,6.65
2022-12-08T10:14:19.478Z,6.43
2022-12-08T10:17:13.369Z,6.68
2022-12-08T10:20:22.705Z,6.75
2022-12-08T10:23:13.441Z,6.67
2022-12-08T10:26:06.905Z,6.53
2022-12-08T10:28:57.620Z,6.51
2022-12-08T10:31:45.502Z,6.55
2022-12-08T10:34:33.143Z,6.48
2022-12-08T10:37:20.828Z,6.30
2022-12-08T10:40:18.317Z,6.63
2022-12-08T10:43:07.248Z,6.65
2022-12-08T10:45:55.143Z,6.68
2022-12-08T10:49:09.139Z,6.69
2022-12-08T10:51:58.075Z,6.57
2022-12-08T10:54:45.681Z,6.66
2022-12-08T10:57:39.004Z,6.52
2022-12-08T11:00:29.152Z,6.57
2022-12-08T11:03:26.833Z,6.58
2022-12-08T11:06:20.124Z,6.66
2022-12-08T11:09:33.595Z,6.58
2022-12-08T11:12:23.079Z,6.80
2022-12-08T11:15:17.649Z,6.69
2022-12-08T11:18:20.843Z,6.52
2022-12-08T11:21:13.993Z,6.72
2022-12-08T11:24:21.038Z,6.73
2022-12-08T11:27:09.357Z,6.71
2022-12-08T11:29:57.254Z,6.69
2022-12-08T11:32:47.872Z,6.77
2022-12-08T11:35:40.474Z,6.90
2022-12-08T11:38:29.258Z,6.82
2022-12-08T11:41:19.373Z,6.78
2022-12-08T11:44:30.935Z,6.74
2022-12-08T11:47:28.677Z,6.64
2022-12-08T11:50:49.734Z,6.74
2022-12-08T11:54:11.338Z,6.62
2022-12-08T11:57:01.826Z,6.52
2022-12-08T11:59:52.409Z,6.53
2022-12-08T12:02:44.998Z,6.35
2022-12-08T12:08:57.713Z,6.71
2022-12-08T12:12:33.667Z,6.73
2022-12-08T12:15:38.801Z,6.74
2022-12-08T12:18:40.519Z,6.84
2022-12-08T12:21:42.142Z,6.88
2022-12-08T12:24:37.019Z,6.74
2022-12-08T12:27:39.376Z,6.73
2022-12-08T12:30:31.862Z,6.78
2022-12-08T12:33:20.817Z,6.78
2022-12-08T12:36:11.084Z,6.67
2022-12-08T12:39:07.956Z,6.72
2022-12-08T12:42:01.551Z,6.44
2022-12-08T12:45:16.362Z,6.49
2022-12-08T12:48:04.258Z,6.42
2022-12-08T12:50:52.508Z,6.53
2022-12-08T12:53:40.124Z,6.57
2022-12-08T12:56:47.231Z,6.53
2022-12-08T13:00:01.053Z,6.48
2022-12-08T13:02:51.239Z,6.35
2022-12-08T13:05:50.809Z,6.25
2022-12-08T13:08:56.501Z,6.33
2022-12-08T13:11:57.556Z,6.46
2022-12-08T13:14:49.381Z,6.43
2022-12-08T13:17:38.765Z,6.46
2022-12-08T13:20:26.820Z,6.34
2022-12-08T13:23:43.757Z,6.40
2022-12-08T13:26:31.412Z,6.46
2022-12-08T13:29:26.786Z,6.31
2022-12-08T13:32:14.302Z,6.44
2022-12-08T13:35:04.576Z,6.35
2022-12-08T13:37:55.133Z,6.34
2022-12-08T13:40:44.242Z,6.34
2022-12-08T13:43:51.363Z,6.12
2022-12-08T13:47:31.687Z,6.31
2022-12-08T13:57:08.596Z,6.17
2022-12-08T14:00:04.866Z,6.34
2022-12-08T14:03:02.073Z,6.17
2022-12-08T14:06:19.210Z,6.15
2022-12-08T14:09:10.080Z,6.12
2022-12-08T14:12:03.751Z,6.10
2022-12-08T14:15:03.331Z,6.09
2022-12-08T14:17:53.603Z,6.11
2022-12-08T14:21:12.258Z,6.13
2022-12-08T14:23:49.321Z,6.00
2022-12-08T14:26:36.968Z,6.15
2022-12-08T14:29:39.012Z,5.91
2022-12-08T14:32:42.899Z,6.12
2022-12-08T14:35:35.900Z,6.03
2022-12-08T14:38:25.943Z,5.99
2022-12-08T14:41:13.809Z,5.97
2022-12-08T14:44:02.670Z,5.96
2022-12-08T14:47:09.703Z,5.96
2022-12-08T14:49:58.373Z,5.92
2022-12-08T14:52:46.093Z,5.99
2022-12-08T14:55:37.898Z,5.97
2022-12-08T14:58:29.200Z,6.02
2022-12-08T15:01:23.954Z,6.00
2022-12-08T15:04:15.038Z,6.04
2022-12-08T15:07:12.321Z,5.93
2022-12-08T15:10:16.676Z,6.10
2022-12-08T15:13:06.106Z,6.00
2022-12-08T15:15:56.535Z,5.96
2022-12-08T15:18:44.184Z,5.99
2022-12-08T15:21:37.527Z,6.07
2022-12-08T15:24:29.435Z,6.01
2022-12-08T15:27:19.794Z,5.64
2022-12-08T15:30:13.240Z,5.89
2022-12-08T15:33:00.872Z,5.96
2022-12-08T15:35:50.115Z,5.73
2022-12-08T15:38:39.373Z,5.96
2022-12-08T15:41:27.026Z,5.82
2022-12-08T15:44:14.711Z,5.84
2022-12-08T15:47:02.690Z,5.84
2022-12-08T15:49:52.781Z,5.59
2022-12-08T15:52:40.556Z,5.83
2022-12-08T15:55:28.306Z,5.81
2022-12-08T16:01:33.830Z,5.88
2022-12-08T16:07:30.930Z,5.76
2022-12-08T16:10:22.272Z,5.48
2022-12-08T16:16:45.033Z,5.76
2022-12-08T16:19:32.697Z,5.67
2022-12-08T16:25:46.294Z,5.66
2022-12-08T16:28:54.063Z,5.65
2022-12-08T16:31:42.357Z,5.73
2022-12-08T16:34:29.959Z,5.76
2022-12-08T16:37:19.436Z,5.76
2022-12-08T16:40:13.200Z,5.73
2022-12-08T16:43:01.014Z,5.70
2022-12-08T16:45:48.817Z,5.67
2022-12-08T16:48:36.494Z,5.75
2022-12-08T16:51:27.090Z,5.67
2022-12-08T16:54:15.263Z,5.69
2022-12-08T16:57:02.940Z,5.69
2022-12-08T16:59:50.592Z,5.76
2022-12-08T17:02:38.619Z,5.81
2022-12-08T17:05:27.321Z,5.69
2022-12-08T17:08:15.307Z,5.72
2022-12-08T17:11:08.963Z,5.68
2022-12-08T17:14:00.259Z,5.85
2022-12-08T17:16:47.852Z,5.68
2022-12-08T17:19:35.838Z,5.73
2022-12-08T17:22:25.909Z,5.78
2022-12-08T17:25:13.934Z,5.75
2022-12-08T17:28:01.613Z,5.70
2022-12-08T17:30:49.350Z,5.53
2022-12-08T17:33:36.974Z,5.56
2022-12-08T17:36:24.644Z,5.50
2022-12-08T17:39:18.278Z,5.45
2022-12-08T17:42:07.323Z,5.62
2022-12-08T17:44:55.246Z,5.67
2022-12-08T17:47:43.069Z,5.72
2022-12-08T17:50:30.750Z,5.75
2022-12-08T17:53:18.651Z,5.76
2022-12-08T17:56:11.237Z,5.64
2022-12-08T17:59:03.497Z,5.44
2022-12-08T18:01:55.788Z,5.57
2022-12-08T18:04:43.771Z,5.68
2022-12-08T18:07:32.468Z,5.68
2022-12-08T18:10:20.464Z,5.65
2022-12-08T18:13:08.940Z,5.58
2022-12-08T18:15:56.670Z,5.46
2022-12-08T18:18:44.462Z,5.66
2022-12-08T18:21:33.893Z,5.57
2022-12-08T18:24:23.540Z,5.67
2022-12-08T18:27:11.128Z,5.63
2022-12-08T18:29:59.109Z,5.30
2022-12-08T18:32:46.969Z,5.56
2022-12-08T18:35:34.877Z,5.48
2022-12-08T18:38:22.602Z,5.64
2022-12-08T18:41:20.258Z,5.70
2022-12-08T18:44:10.195Z,5.44
2022-12-08T18:46:57.872Z,5.54
2022-12-08T18:49:45.660Z,5.59
2022-12-08T18:52:33.678Z,5.54
2022-12-08T18:55:21.547Z,5.51
2022-12-08T18:58:11.112Z,5.61
2022-12-08T19:00:59.001Z,5.00
2022-12-08T19:04:27.364Z,5.41
2022-12-08T19:07:00.075Z,5.54
2022-12-08T19:09:47.737Z,5.49
2022-12-08T19:12:35.470Z,5.49
2022-12-08T19:15:25.790Z,5.48
2022-12-08T19:18:13.508Z,5.45
2022-12-08T19:21:02.075Z,5.43
2022-12-08T19:23:51.796Z,5.34
2022-12-08T19:26:39.767Z,5.49
2022-12-08T19:29:29.823Z,5.49
2022-12-08T19:32:20.022Z,5.44
2022-12-08T19:35:10.190Z,5.51
2022-12-08T19:37:57.985Z,5.48
2022-12-08T19:41:04.047Z,5.41
2022-12-08T19:44:10.163Z,5.33
2022-12-08T19:46:57.907Z,5.46
2022-12-08T19:49:45.792Z,5.41
2022-12-08T19:52:33.696Z,5.56
2022-12-08T19:55:21.380Z,5.51
2022-12-08T19:58:09.788Z,5.49
2022-12-08T20:00:57.396Z,5.42
2022-12-08T20:03:45.085Z,5.30
2022-12-08T20:06:35.827Z,5.44
2022-12-08T20:09:26.622Z,5.43
2022-12-08T20:12:14.879Z,5.29
2022-12-08T20:15:02.813Z,5.36
2022-12-08T20:17:50.535Z,5.42
2022-12-08T20:20:39.455Z,5.30
2022-12-08T20:23:27.162Z,5.28
2022-12-08T20:26:14.757Z,5.07
2022-12-08T20:29:02.512Z,5.31
2022-12-08T20:31:50.556Z,5.30
2022-12-08T20:34:38.401Z,5.37
2022-12-08T20:37:26.207Z,5.30
2022-12-08T20:40:14.333Z,5.31
2022-12-08T20:43:02.692Z,5.32
2022-12-08T20:45:53.432Z,5.38
2022-12-08T20:48:41.558Z,5.30
2022-12-08T20:51:33.073Z,5.17
2022-12-08T20:54:29.229Z,5.31
2022-12-08T20:57:20.412Z,5.21
2022-12-08T21:00:34.486Z,5.29
2022-12-08T21:03:25.456Z,5.27
2022-12-08T21:06:13.815Z,5.30
2022-12-08T21:09:01.679Z,5.27
2022-12-08T21:11:49.532Z,5.36
2022-12-08T21:14:37.372Z,5.37
2022-12-08T21:17:25.517Z,5.17
2022-12-08T21:20:13.392Z,5.34
2022-12-08T21:23:07.831Z,5.37
2022-12-08T21:29:20.305Z,4.71
2022-12-08T21:32:08.363Z,5.13
2022-12-08T21:34:56.113Z,5.22
2022-12-08T21:37:43.857Z,5.31
2022-12-08T21:40:31.516Z,5.12
2022-12-08T21:43:19.134Z,5.14
2022-12-08T21:46:14.196Z,5.10
2022-12-08T21:49:02.479Z,5.18
2022-12-08T21:51:52.536Z,5.21
2022-12-08T21:54:40.301Z,5.29
2022-12-08T21:57:28.508Z,5.21
2022-12-08T22:00:17.060Z,5.18
2022-12-08T22:03:05.714Z,5.27
2022-12-08T22:06:13.825Z,5.19
2022-12-08T22:09:13.526Z,5.28
2022-12-08T22:12:02.101Z,5.37
2022-12-08T22:14:51.154Z,5.42
2022-12-08T22:17:43.537Z,5.07
2022-12-08T22:20:31.455Z,5.04
2022-12-08T22:23:19.898Z,5.23
2022-12-08T22:26:08.293Z,5.15
2022-12-08T22:28:55.917Z,5.18
2022-12-08T22:31:43.850Z,5.07
2022-12-08T22:34:31.512Z,5.02
2022-12-08T22:37:19.153Z,4.93
2022-12-08T22:40:07.683Z,4.95
2022-12-08T22:42:55.515Z,4.94
2022-12-08T22:45:44.708Z,5.04
2022-12-08T22:48:32.847Z,5.12
2022-12-08T22:51:20.832Z,5.03
2022-12-08T22:54:11.288Z,5.13
2022-12-08T22:56:58.893Z,5.03
2022-12-08T22:59:46.659Z,4.96
2022-12-08T23:02:34.433Z,5.04
2022-12-08T23:05:22.449Z,5.05
2022-12-08T23:08:15.948Z,5.07
2022-12-08T23:11:03.794Z,4.96
2022-12-08T23:13:51.691Z,4.80
2022-12-08T23:16:39.420Z,4.77
2022-12-08T23:19:30.592Z,4.96
2022-12-08T23:22:18.609Z,4.96
2022-12-08T23:25:07.051Z,5.01
2022-12-08T23:27:55.217Z,5.02
2022-12-08T23:30:43.101Z,4.86
2022-12-08T23:33:31.846Z,4.83
2022-12-08T23:36:21.063Z,4.77
2022-12-08T23:39:09.165Z,4.77
2022-12-08T23:41:59.992Z,4.99
2022-12-08T23:44:47.708Z,4.99
2022-12-08T23:47:35.931Z,5.02
2022-12-08T23:50:23.546Z,4.99
2022-12-08T23:53:11.214Z,4.63
2022-12-08T23:56:04.676Z,5.03
2022-12-08T23:58:52.434Z,5.09
